createdAt,value
2023-03-17T00:01:45.746Z,100781.81
2023-03-17T00:04:15.281Z,100773.56
2023-03-17T00:06:42.829Z,100763.66
2023-03-17T00:09:13.140Z,100761.66
2023-03-17T00:11:40.711Z,100762.72
2023-03-17T00:14:08.547Z,100761.03
2023-03-17T00:16:39.613Z,100772.72
2023-03-17T00:19:14.144Z,100775.66
2023-03-17T00:21:41.601Z,100764.00
2023-03-17T00:24:14.763Z,100776.38
2023-03-17T00:26:42.759Z,100775.63
2023-03-17T00:29:10.747Z,100783.59
2023-03-17T00:31:39.746Z,100778.03
2023-03-17T00:34:10.835Z,100772.81
2023-03-17T00:36:38.347Z,100762.50
2023-03-17T00:41:39.900Z,100765.44
2023-03-17T00:44:08.267Z,100766.56
2023-03-17T00:46:40.681Z,100752.22
2023-03-17T00:51:43.972Z,100726.31
2023-03-17T00:54:13.854Z,100718.38
2023-03-17T00:56:42.916Z,100715.81
2023-03-17T00:59:19.470Z,100723.00
2023-03-17T01:01:50.111Z,100721.56
2023-03-17T01:04:19.499Z,100714.69
2023-03-17T01:06:47.658Z,100706.38
2023-03-17T01:09:16.808Z,100695.28
2023-03-17T01:11:44.524Z,100702.78
2023-03-17T01:14:13.284Z,100693.63
2023-03-17T01:16:41.240Z,100697.44
2023-03-17T01:19:10.971Z,100695.72
2023-03-17T01:21:42.558Z,100713.22
2023-03-17T01:24:10.630Z,100711.88
2023-03-17T01:26:38.646Z,100708.06
2023-03-17T01:29:06.816Z,100719.72
2023-03-17T01:31:34.738Z,100706.06
2023-03-17T01:34:02.509Z,100694.84
2023-03-17T01:36:32.897Z,100696.25
2023-03-17T01:39:02.703Z,100676.03
2023-03-17T01:41:33.709Z,100675.09
2023-03-17T01:44:01.337Z,100661.31
2023-03-17T01:46:30.685Z,100664.59
2023-03-17T01:49:08.376Z,100667.41
2023-03-17T01:51:45.820Z,100675.19
2023-03-17T01:54:22.832Z,100680.88
2023-03-17T01:56:52.604Z,100685.19
2023-03-17T01:59:26.136Z,100673.69
2023-03-17T02:04:36.593Z,100677.97
2023-03-17T02:07:08.130Z,100690.66
2023-03-17T02:09:37.474Z,100668.63
2023-03-17T02:12:10.165Z,100662.03
2023-03-17T02:14:37.665Z,100657.69
2023-03-17T02:17:05.494Z,100668.78
2023-03-17T02:19:32.865Z,100656.69
2023-03-17T02:22:02.303Z,100654.81
2023-03-17T02:24:34.393Z,100650.25
2023-03-17T02:27:07.810Z,100648.16
2023-03-17T02:29:36.135Z,100652.63
2023-03-17T02:32:04.241Z,100649.59
2023-03-17T02:34:32.517Z,100646.69
2023-03-17T02:37:01.777Z,100651.56
2023-03-17T02:39:29.649Z,100648.94
2023-03-17T02:41:57.367Z,100645.44
2023-03-17T02:44:25.281Z,100648.94
2023-03-17T02:46:53.350Z,100644.88
2023-03-17T02:49:20.905Z,100645.84
2023-03-17T02:51:48.724Z,100645.06
2023-03-17T02:54:18.099Z,100648.38
2023-03-17T02:56:45.792Z,100653.19
2023-03-17T02:59:13.234Z,100646.78
2023-03-17T03:01:40.843Z,100638.66
2023-03-17T03:04:08.733Z,100640.06
2023-03-17T03:06:36.787Z,100642.63
2023-03-17T03:09:04.398Z,100636.59
2023-03-17T03:11:33.525Z,100635.06
2023-03-17T03:14:00.770Z,100640.53
2023-03-17T03:16:28.824Z,100637.41
2023-03-17T03:18:56.290Z,100640.53
2023-03-17T03:21:24.328Z,100620.91
2023-03-17T03:23:51.928Z,100631.28
2023-03-17T03:26:19.641Z,100620.13
2023-03-17T03:28:48.465Z,100621.94
2023-03-17T03:31:16.293Z,100623.81
2023-03-17T03:33:44.505Z,100614.94
2023-03-17T03:36:12.418Z,100614.78
2023-03-17T03:38:39.780Z,100610.59
2023-03-17T03:41:10.824Z,100607.97
2023-03-17T03:43:38.071Z,100609.09
2023-03-17T03:46:07.627Z,100618.34
2023-03-17T03:48:35.032Z,100612.31
2023-03-17T03:51:03.470Z,100617.63
2023-03-17T03:53:31.363Z,100618.91
2023-03-17T03:55:59.514Z,100608.53
2023-03-17T03:58:26.879Z,100602.59
2023-03-17T04:00:54.934Z,100605.41
2023-03-17T04:03:23.614Z,100595.78
2023-03-17T04:05:51.394Z,100598.72
2023-03-17T04:08:18.740Z,100599.25
2023-03-17T04:10:46.845Z,100593.81
2023-03-17T04:13:14.146Z,100605.97
2023-03-17T04:15:41.986Z,100596.69
2023-03-17T04:18:09.289Z,100595.00
2023-03-17T04:20:38.815Z,100591.31
2023-03-17T04:23:06.310Z,100598.41
2023-03-17T04:25:34.180Z,100602.19
2023-03-17T04:28:01.818Z,100598.59
2023-03-17T04:30:29.945Z,100595.19
2023-03-17T04:32:57.613Z,100591.59
2023-03-17T04:35:25.415Z,100594.25
2023-03-17T04:37:54.286Z,100599.00
2023-03-17T04:40:22.136Z,100602.59
2023-03-17T04:42:49.496Z,100596.78
2023-03-17T04:45:17.376Z,100598.59
2023-03-17T04:47:45.017Z,100598.31
2023-03-17T04:50:13.974Z,100596.59
2023-03-17T04:52:41.783Z,100596.53
2023-03-17T04:55:11.377Z,100601.34
2023-03-17T04:57:38.738Z,100605.91
2023-03-17T05:00:08.624Z,100609.66
2023-03-17T05:02:36.178Z,100599.84
2023-03-17T05:05:05.220Z,100594.94
2023-03-17T05:07:34.150Z,100606.72
2023-03-17T05:10:02.018Z,100601.94
2023-03-17T05:12:31.035Z,100594.00
2023-03-17T05:14:58.761Z,100582.28
2023-03-17T05:17:26.096Z,100578.50
2023-03-17T05:19:53.795Z,100571.16
2023-03-17T05:22:21.112Z,100584.63
2023-03-17T05:24:48.899Z,100590.03
2023-03-17T05:27:16.429Z,100587.22
2023-03-17T05:29:45.626Z,100589.56
2023-03-17T05:32:13.257Z,100585.50
2023-03-17T05:34:40.972Z,100583.81
2023-03-17T05:37:08.487Z,100589.34
2023-03-17T05:39:36.342Z,100594.72
2023-03-17T05:42:04.046Z,100603.22
2023-03-17T05:44:32.264Z,100605.09
2023-03-17T05:47:01.253Z,100600.53
2023-03-17T05:49:29.411Z,100588.47
2023-03-17T05:51:56.843Z,100596.69
2023-03-17T05:54:24.973Z,100596.91
2023-03-17T05:56:52.209Z,100605.69
2023-03-17T05:59:19.909Z,100597.16
2023-03-17T06:01:47.210Z,100588.19
2023-03-17T06:04:16.688Z,100587.16
2023-03-17T06:06:44.148Z,100586.09
2023-03-17T06:09:12.171Z,100590.16
2023-03-17T06:11:39.856Z,100591.88
2023-03-17T06:14:07.743Z,100585.53
2023-03-17T06:16:35.095Z,100580.78
2023-03-17T06:19:03.387Z,100588.66
2023-03-17T06:21:32.405Z,100589.50
2023-03-17T06:24:00.458Z,100582.19
2023-03-17T06:26:27.825Z,100572.97
2023-03-17T06:28:55.508Z,100580.28
2023-03-17T06:31:23.073Z,100564.56
2023-03-17T06:33:50.868Z,100571.63
2023-03-17T06:36:18.177Z,100564.38
2023-03-17T06:38:47.291Z,100565.28
2023-03-17T06:41:14.992Z,100568.81
2023-03-17T06:43:42.970Z,100573.16
2023-03-17T06:46:13.487Z,100567.78
2023-03-17T06:48:41.215Z,100560.13
2023-03-17T06:51:08.784Z,100555.75
2023-03-17T06:53:36.473Z,100554.78
2023-03-17T06:56:05.831Z,100556.84
2023-03-17T06:58:33.711Z,100554.69
2023-03-17T07:01:01.197Z,100549.44
2023-03-17T07:03:29.237Z,100554.78
2023-03-17T07:05:57.578Z,100551.66
2023-03-17T07:08:25.661Z,100551.53
2023-03-17T07:10:54.893Z,100553.50
2023-03-17T07:13:24.260Z,100560.25
2023-03-17T07:15:54.494Z,100553.16
2023-03-17T07:18:23.123Z,100558.88
2023-03-17T07:20:50.426Z,100558.88
2023-03-17T07:23:21.397Z,100547.72
2023-03-17T07:25:49.007Z,100553.56
2023-03-17T07:28:16.986Z,100558.28
2023-03-17T07:30:48.786Z,100554.06
2023-03-17T07:33:17.791Z,100548.97
2023-03-17T07:35:45.188Z,100555.03
2023-03-17T07:38:13.327Z,100550.16
2023-03-17T07:40:40.708Z,100546.19
2023-03-17T07:43:08.448Z,100551.53
2023-03-17T07:45:35.975Z,100547.53
2023-03-17T07:48:06.496Z,100536.44
2023-03-17T07:50:34.809Z,100534.53
2023-03-17T07:53:03.569Z,100533.78
2023-03-17T07:55:31.995Z,100541.16
2023-03-17T07:58:00.191Z,100528.75
2023-03-17T08:00:27.880Z,100528.59
2023-03-17T08:03:08.920Z,100527.41
2023-03-17T08:05:38.568Z,100535.00
2023-03-17T08:08:07.029Z,100529.19
2023-03-17T08:10:35.000Z,100526.72
2023-03-17T08:13:03.160Z,100523.66
2023-03-17T08:15:30.707Z,100515.53
2023-03-17T08:17:58.391Z,100512.50
2023-03-17T08:20:25.750Z,100509.19
2023-03-17T08:22:55.702Z,100515.31
2023-03-17T08:25:23.372Z,100510.47
2023-03-17T08:27:51.532Z,100506.53
2023-03-17T08:30:19.288Z,100515.25
2023-03-17T08:32:47.992Z,100504.06
2023-03-17T08:35:17.273Z,100510.13
2023-03-17T08:37:45.794Z,100504.91
2023-03-17T08:40:17.681Z,100506.88
2023-03-17T08:42:48.172Z,100509.84
2023-03-17T08:45:17.225Z,100497.56
2023-03-17T08:47:45.098Z,100513.47
2023-03-17T08:50:17.661Z,100526.81
2023-03-17T08:52:45.695Z,100507.19
2023-03-17T08:55:15.363Z,100511.97
2023-03-17T08:57:43.393Z,100519.75
2023-03-17T09:00:13.104Z,100532.78
2023-03-17T09:02:43.339Z,100523.56
2023-03-17T09:05:12.531Z,100508.22
2023-03-17T09:07:40.444Z,100509.63
2023-03-17T09:10:09.725Z,100514.38
2023-03-17T09:12:38.863Z,100511.31
2023-03-17T09:15:07.782Z,100529.47
2023-03-17T09:17:35.928Z,100534.41
2023-03-17T09:20:03.876Z,100527.38
2023-03-17T09:22:31.792Z,100522.16
2023-03-17T09:24:59.374Z,100512.97
2023-03-17T09:27:27.271Z,100509.09
2023-03-17T09:29:56.072Z,100494.91
2023-03-17T09:32:23.734Z,100489.47
2023-03-17T09:34:51.757Z,100497.63
2023-03-17T09:37:19.615Z,100524.53
2023-03-17T09:39:46.985Z,100524.06
2023-03-17T09:42:28.166Z,100522.16
2023-03-17T09:45:07.167Z,100524.59
2023-03-17T09:48:22.529Z,100511.31
2023-03-17T09:50:54.213Z,100522.25
2023-03-17T09:53:25.660Z,100515.16
2023-03-17T09:55:57.643Z,100517.91
2023-03-17T09:58:29.671Z,100518.75
2023-03-17T10:00:58.528Z,100516.22
2023-03-17T10:03:29.362Z,100510.72
2023-03-17T10:06:08.288Z,100511.03
2023-03-17T10:08:45.089Z,100505.56
2023-03-17T10:11:19.150Z,100507.19
2023-03-17T10:13:54.672Z,100504.34
2023-03-17T10:16:31.265Z,100487.50
2023-03-17T10:19:03.570Z,100479.88
2023-03-17T10:21:34.065Z,100483.84
2023-03-17T10:24:04.361Z,100495.50
2023-03-17T10:26:34.741Z,100492.56
2023-03-17T10:29:02.835Z,100489.91
2023-03-17T10:31:33.840Z,100491.22
2023-03-17T10:34:13.200Z,100481.84
2023-03-17T10:36:42.861Z,100491.56
2023-03-17T10:39:17.234Z,100503.47
2023-03-17T10:41:52.929Z,100474.44
2023-03-17T10:44:38.899Z,100457.75
2023-03-17T10:47:20.669Z,100445.09
2023-03-17T10:49:48.594Z,100441.63
2023-03-17T10:52:22.185Z,100444.19
2023-03-17T10:54:50.649Z,100430.94
2023-03-17T10:57:18.250Z,100417.81
2023-03-17T10:59:50.300Z,100424.22
2023-03-17T11:02:25.651Z,100428.34
2023-03-17T11:05:00.930Z,100429.88
2023-03-17T11:07:34.872Z,100429.63
2023-03-17T11:10:04.280Z,100409.88
2023-03-17T11:12:38.754Z,100413.06
2023-03-17T11:15:11.643Z,100407.53
2023-03-17T11:17:48.375Z,100400.84
2023-03-17T11:20:44.810Z,100405.72
2023-03-17T11:23:22.214Z,100399.13
2023-03-17T11:25:58.494Z,100403.66
2023-03-17T11:28:33.546Z,100403.00
2023-03-17T11:31:07.133Z,100391.56
2023-03-17T11:33:47.520Z,100392.78
2023-03-17T11:36:31.454Z,100389.88
2023-03-17T11:39:02.902Z,100392.44
2023-03-17T11:41:42.371Z,100387.22
2023-03-17T11:44:39.255Z,100397.66
2023-03-17T11:47:17.653Z,100377.13
2023-03-17T11:49:52.503Z,100370.00
2023-03-17T11:52:28.375Z,100353.97
2023-03-17T11:55:07.395Z,100362.44
2023-03-17T11:57:41.908Z,100341.72
2023-03-17T12:00:17.014Z,100341.16
2023-03-17T12:02:49.145Z,100341.72
2023-03-17T12:05:22.774Z,100351.97
2023-03-17T12:07:53.554Z,100340.66
2023-03-17T12:10:25.938Z,100331.44
2023-03-17T12:12:59.001Z,100334.84
2023-03-17T12:15:31.531Z,100326.44
2023-03-17T12:18:04.886Z,100335.63
2023-03-17T12:20:42.372Z,100311.66
2023-03-17T12:23:18.970Z,100321.44
2023-03-17T12:25:51.833Z,100316.47
2023-03-17T12:28:25.473Z,100325.28
2023-03-17T12:30:56.045Z,100323.47
2023-03-17T12:33:31.226Z,100323.50
2023-03-17T12:36:02.422Z,100304.22
2023-03-17T12:38:37.892Z,100300.91
2023-03-17T12:41:21.961Z,100306.19
2023-03-17T12:44:02.730Z,100316.94
2023-03-17T12:46:50.268Z,100304.66
2023-03-17T12:49:48.820Z,100296.84
2023-03-17T12:52:42.822Z,100322.94
2023-03-17T12:55:14.508Z,100288.75
2023-03-17T12:57:47.257Z,100293.38
2023-03-17T13:00:24.554Z,100300.75
2023-03-17T13:03:11.928Z,100294.69
2023-03-17T13:05:45.284Z,100293.09
2023-03-17T13:08:22.145Z,100294.22
2023-03-17T13:10:50.515Z,100298.69
2023-03-17T13:13:34.285Z,100293.78
2023-03-17T13:16:05.068Z,100289.06
2023-03-17T13:18:50.279Z,100283.59
2023-03-17T13:21:23.155Z,100277.78
2023-03-17T13:23:58.337Z,100281.03
2023-03-17T13:26:54.287Z,100274.50
2023-03-17T13:29:38.522Z,100262.56
2023-03-17T13:32:45.491Z,100263.97
2023-03-17T13:35:21.636Z,100270.16
2023-03-17T13:38:31.295Z,100269.06
2023-03-17T13:41:17.956Z,100272.84
2023-03-17T13:44:06.300Z,100264.03
2023-03-17T13:46:42.730Z,100256.97
2023-03-17T13:49:21.516Z,100261.78
2023-03-17T13:51:59.807Z,100279.03
2023-03-17T13:54:35.430Z,100273.66
2023-03-17T13:57:29.187Z,100267.38
2023-03-17T14:00:02.774Z,100281.28
2023-03-17T14:02:33.443Z,100263.19
2023-03-17T14:05:04.514Z,100262.94
2023-03-17T14:07:43.037Z,100265.31
2023-03-17T14:10:18.430Z,100276.03
2023-03-17T14:12:56.802Z,100249.66
2023-03-17T14:15:29.499Z,100262.06
2023-03-17T14:18:03.853Z,100254.69
2023-03-17T14:20:32.045Z,100253.97
2023-03-17T14:23:01.480Z,100242.53
2023-03-17T14:25:33.813Z,100242.09
2023-03-17T14:28:04.921Z,100237.81
2023-03-17T14:30:35.131Z,100227.50
2023-03-17T14:33:05.396Z,100226.91
2023-03-17T14:35:35.810Z,100226.47
2023-03-17T14:38:03.526Z,100221.06
2023-03-17T14:40:31.941Z,100217.31
2023-03-17T14:42:59.502Z,100213.88
2023-03-17T14:45:41.734Z,100209.88
2023-03-17T14:48:13.556Z,100210.59
2023-03-17T14:50:49.853Z,100207.84
2023-03-17T14:53:17.360Z,100202.66
2023-03-17T14:55:45.302Z,100203.53
2023-03-17T14:58:21.017Z,100198.78
2023-03-17T15:00:56.481Z,100188.84
2023-03-17T15:03:28.293Z,100187.16
2023-03-17T15:06:05.831Z,100190.44
2023-03-17T15:08:41.628Z,100185.50
2023-03-17T15:11:17.925Z,100176.28
2023-03-17T15:13:45.693Z,100169.94
2023-03-17T15:16:21.703Z,100166.34
2023-03-17T15:18:55.204Z,100170.53
2023-03-17T15:21:28.563Z,100167.44
2023-03-17T15:23:55.905Z,100177.66
2023-03-17T15:26:29.652Z,100167.97
2023-03-17T15:28:58.291Z,100166.25
2023-03-17T15:31:28.586Z,100157.63
2023-03-17T15:33:57.478Z,100166.44
2023-03-17T15:36:32.796Z,100165.72
2023-03-17T15:39:00.859Z,100169.13
2023-03-17T15:41:28.774Z,100165.97
2023-03-17T15:43:56.124Z,100163.06
2023-03-17T15:46:25.528Z,100154.59
2023-03-17T15:48:54.450Z,100168.75
2023-03-17T15:51:22.597Z,100161.41
2023-03-17T15:53:52.116Z,100162.44
2023-03-17T15:56:21.491Z,100167.91
2023-03-17T15:58:50.129Z,100168.31
2023-03-17T16:01:18.761Z,100175.56
2023-03-17T16:03:47.262Z,100173.91
2023-03-17T16:06:19.051Z,100166.03
2023-03-17T16:08:46.606Z,100158.03
2023-03-17T16:11:16.402Z,100165.19
2023-03-17T16:13:43.903Z,100161.50
2023-03-17T16:16:19.021Z,100166.50
2023-03-17T16:18:48.227Z,100162.88
2023-03-17T16:21:18.043Z,100168.63
2023-03-17T16:23:46.146Z,100167.13
2023-03-17T16:26:16.554Z,100162.06
2023-03-17T16:28:45.428Z,100172.16
2023-03-17T16:31:24.685Z,100168.81
2023-03-17T16:33:54.820Z,100155.06
2023-03-17T16:36:27.497Z,100152.72
2023-03-17T16:38:54.754Z,100153.72
2023-03-17T16:41:24.404Z,100151.56
2023-03-17T16:43:55.661Z,100145.66
2023-03-17T16:46:23.628Z,100157.41
2023-03-17T16:48:51.434Z,100156.88
2023-03-17T16:51:19.700Z,100151.38
2023-03-17T16:53:48.500Z,100155.38
2023-03-17T16:56:18.974Z,100156.06
2023-03-17T16:58:47.461Z,100166.09
2023-03-17T17:01:18.143Z,100168.09
2023-03-17T17:03:45.805Z,100160.03
2023-03-17T17:06:14.732Z,100162.19
2023-03-17T17:08:43.881Z,100155.81
2023-03-17T17:11:13.704Z,100160.50
2023-03-17T17:13:42.549Z,100169.66
2023-03-17T17:16:18.928Z,100172.00
2023-03-17T17:18:46.536Z,100165.63
2023-03-17T17:21:14.803Z,100169.94
2023-03-17T17:23:42.448Z,100175.78
2023-03-17T17:26:10.300Z,100182.28
2023-03-17T17:28:39.492Z,100181.22
2023-03-17T17:31:07.599Z,100174.69
2023-03-17T17:33:36.094Z,100175.69
2023-03-17T17:36:04.833Z,100179.25
2023-03-17T17:38:32.651Z,100178.19
2023-03-17T17:41:01.461Z,100176.09
2023-03-17T17:43:29.900Z,100176.81
2023-03-17T17:45:59.646Z,100171.69
2023-03-17T17:48:28.037Z,100176.09
2023-03-17T17:50:56.930Z,100172.31
2023-03-17T17:53:24.771Z,100172.97
2023-03-17T17:55:52.984Z,100162.81
2023-03-17T17:58:22.329Z,100161.31
2023-03-17T18:00:51.166Z,100166.41
2023-03-17T18:03:19.973Z,100157.91
2023-03-17T18:05:48.156Z,100154.63
2023-03-17T18:08:15.745Z,100161.66
2023-03-17T18:10:43.612Z,100155.97
2023-03-17T18:13:10.975Z,100153.13
2023-03-17T18:15:38.747Z,100144.41
2023-03-17T18:18:06.680Z,100156.47
2023-03-17T18:20:36.087Z,100153.78
2023-03-17T18:23:03.453Z,100159.16
2023-03-17T18:25:31.232Z,100149.06
2023-03-17T18:27:58.686Z,100159.09
2023-03-17T18:30:28.121Z,100158.94
2023-03-17T18:32:58.198Z,100151.38
2023-03-17T18:35:28.724Z,100146.88
2023-03-17T18:37:58.105Z,100148.91
2023-03-17T18:40:26.724Z,100147.72
2023-03-17T18:42:54.603Z,100143.19
2023-03-17T18:45:22.447Z,100143.91
2023-03-17T18:47:49.806Z,100140.00
2023-03-17T18:50:17.923Z,100147.06
2023-03-17T18:52:45.601Z,100148.03
2023-03-17T18:55:15.168Z,100146.66
2023-03-17T18:57:44.771Z,100148.50
2023-03-17T19:00:15.139Z,100150.72
2023-03-17T19:02:43.095Z,100151.50
2023-03-17T19:05:11.518Z,100149.88
2023-03-17T19:07:40.326Z,100139.84
2023-03-17T19:10:09.302Z,100147.03
2023-03-17T19:12:38.359Z,100142.34
2023-03-17T19:15:08.471Z,100148.97
2023-03-17T19:17:36.056Z,100143.81
2023-03-17T19:20:04.213Z,100140.66
2023-03-17T19:22:31.662Z,100137.25
2023-03-17T19:24:59.724Z,100138.72
2023-03-17T19:27:27.290Z,100135.38
2023-03-17T19:29:56.746Z,100130.84
2023-03-17T19:32:24.156Z,100134.84
2023-03-17T19:34:52.693Z,100134.19
2023-03-17T19:37:20.394Z,100131.50
2023-03-17T19:39:48.241Z,100128.59
2023-03-17T19:42:15.747Z,100128.31
2023-03-17T19:44:43.529Z,100132.72
2023-03-17T19:47:12.475Z,100126.78
2023-03-17T19:49:40.257Z,100131.59
2023-03-17T19:52:08.109Z,100123.31
2023-03-17T19:54:36.867Z,100125.69
2023-03-17T19:57:04.646Z,100137.63
2023-03-17T19:59:32.224Z,100130.13
2023-03-17T20:01:59.715Z,100136.91
2023-03-17T20:04:29.290Z,100131.31
2023-03-17T20:06:56.827Z,100127.53
2023-03-17T20:09:27.402Z,100121.81
2023-03-17T20:11:55.415Z,100113.69
2023-03-17T20:14:23.997Z,100104.56
2023-03-17T20:16:51.819Z,100102.63
2023-03-17T20:19:19.701Z,100115.41
2023-03-17T20:21:48.830Z,100104.75
2023-03-17T20:24:17.177Z,100107.44
2023-03-17T20:26:44.990Z,100105.06
2023-03-17T20:29:12.857Z,100111.81
2023-03-17T20:31:41.107Z,100111.66
2023-03-17T20:34:09.355Z,100110.53
2023-03-17T20:36:36.900Z,100120.25
2023-03-17T20:39:06.512Z,100106.75
2023-03-17T20:41:34.171Z,100115.16
2023-03-17T20:44:05.076Z,100112.31
2023-03-17T20:46:33.021Z,100107.25
2023-03-17T20:49:02.022Z,100101.06
2023-03-17T20:51:29.418Z,100104.19
2023-03-17T20:53:57.261Z,100106.75
2023-03-17T20:56:26.081Z,100106.31
2023-03-17T20:58:54.152Z,100111.81
2023-03-17T21:01:22.329Z,100110.00
2023-03-17T21:03:50.601Z,100106.31
2023-03-17T21:06:18.518Z,100110.28
2023-03-17T21:08:46.304Z,100106.78
2023-03-17T21:11:16.511Z,100108.84
2023-03-17T21:13:46.289Z,100105.66
2023-03-17T21:16:17.734Z,100104.81
2023-03-17T21:18:46.135Z,100098.78
2023-03-17T21:21:13.721Z,100095.41
2023-03-17T21:23:41.720Z,100093.44
2023-03-17T21:26:09.526Z,100098.47
2023-03-17T21:28:40.837Z,100088.38
2023-03-17T21:31:14.499Z,100099.59
2023-03-17T21:33:42.643Z,100080.50
2023-03-17T21:36:10.546Z,100083.59
2023-03-17T21:38:38.330Z,100080.50
2023-03-17T21:41:30.145Z,100080.22
2023-03-17T21:43:58.158Z,100079.25
2023-03-17T21:46:27.078Z,100077.81
2023-03-17T21:48:54.801Z,100060.72
2023-03-17T21:51:22.670Z,100060.88
2023-03-17T21:53:53.351Z,100063.25
2023-03-17T21:56:21.274Z,100059.16
2023-03-17T21:58:49.347Z,100066.75
2023-03-17T22:01:17.136Z,100058.06
2023-03-17T22:03:46.906Z,100056.50
2023-03-17T22:06:15.758Z,100052.31
2023-03-17T22:08:43.987Z,100056.78
2023-03-17T22:11:14.232Z,100047.69
2023-03-17T22:13:44.226Z,100049.06
2023-03-17T22:16:15.999Z,100049.50
2023-03-17T22:18:44.043Z,100053.69
2023-03-17T22:21:12.951Z,100042.59
2023-03-17T22:23:40.963Z,100052.03
2023-03-17T22:26:10.070Z,100058.34
2023-03-17T22:28:38.014Z,100052.56
2023-03-17T22:31:11.686Z,100052.69
2023-03-17T22:33:39.671Z,100050.16
2023-03-17T22:36:07.808Z,100047.00
2023-03-17T22:38:38.841Z,100039.13
2023-03-17T22:41:07.820Z,100043.09
2023-03-17T22:43:36.020Z,100047.31
2023-03-17T22:46:03.790Z,100037.22
2023-03-17T22:48:32.052Z,100031.53
2023-03-17T22:51:01.390Z,100041.06
2023-03-17T22:53:30.040Z,100043.03
2023-03-17T22:55:59.774Z,100047.25
2023-03-17T22:58:28.535Z,100041.38
2023-03-17T23:00:56.417Z,100042.47
2023-03-17T23:03:25.570Z,100036.59
2023-03-17T23:05:55.016Z,100034.22
2023-03-17T23:08:24.090Z,100032.53
2023-03-17T23:10:51.921Z,100037.28
2023-03-17T23:13:21.914Z,100033.78
2023-03-17T23:15:49.279Z,100037.13
2023-03-17T23:18:17.354Z,100041.19
2023-03-17T23:20:44.760Z,100034.56
2023-03-17T23:23:13.108Z,100027.97
2023-03-17T23:25:40.559Z,100036.41
2023-03-17T23:28:14.869Z,100042.31
2023-03-17T23:30:43.935Z,100030.25
2023-03-17T23:33:12.254Z,100022.16
2023-03-17T23:35:39.705Z,100024.41
2023-03-17T23:38:07.906Z,100024.25
2023-03-17T23:40:35.700Z,100025.25
2023-03-17T23:43:03.386Z,100018.38
2023-03-17T23:45:30.768Z,100015.38
2023-03-17T23:48:00.046Z,100021.41
2023-03-17T23:50:27.507Z,100026.88
2023-03-17T23:52:55.449Z,100026.16
2023-03-17T23:55:23.042Z,100017.22
2023-03-17T23:57:50.656Z,100014.31
